Time;durP1;ratioP1;P1;durP2;ratioP2;P2;SDS_P1;SDS_P2;PMS_P1;PMS_P2;Temp;Humidity;BMP_temperature;BMP_pressure;BME280_temperature;BME280_humidity;BME280_pressure;Samples;Min_cycle;Max_cycle;Signal;HPM_P1;HPM_P2
2021/12/29 00:01:50;;;;;;;20.42;11.82;;;;;;;2.77;100.00;90192.34;4998016;28;20520;-70
2021/12/29 00:04:16;;;;;;;17.13;11.30;;;;;;;2.72;100.00;90184.53;4997796;28;20125;-69
2021/12/29 00:06:42;;;;;;;18.88;11.50;;;;;;;2.73;100.00;90186.09;4997771;28;20030;-70
2021/12/29 00:09:08;;;;;;;13.30;8.30;;;;;;;2.86;100.00;90188.84;4997846;28;20034;-70
2021/12/29 00:11:38;;;;;;;12.38;8.23;;;;;;;2.90;100.00;90192.47;4996876;28;20548;-70
2021/12/29 00:14:04;;;;;;;12.65;8.20;;;;;;;2.92;100.00;90187.72;4997761;28;20138;-70
2021/12/29 00:16:34;;;;;;;12.48;7.93;;;;;;;2.88;100.00;90188.56;4997653;28;20603;-70
2021/12/29 00:19:00;;;;;;;13.88;8.18;;;;;;;2.87;100.00;90189.63;4997797;28;20129;-69
2021/12/29 00:21:26;;;;;;;11.30;7.45;;;;;;;2.79;100.00;90190.22;4997535;28;20117;-69
2021/12/29 00:23:58;;;;;;;12.50;7.97;;;;;;;2.71;100.00;90194.25;4997641;28;20130;-70
2021/12/29 00:26:24;;;;;;;14.02;7.97;;;;;;;2.77;100.00;90187.09;4997497;28;20105;-70
2021/12/29 00:28:50;;;;;;;14.27;8.60;;;;;;;2.84;100.00;90193.59;4994844;28;20111;-69
2021/12/29 00:31:16;;;;;;;15.73;10.13;;;;;;;2.82;100.00;90200.16;4994635;28;20488;-70
2021/12/29 00:33:41;;;;;;;18.52;11.98;;;;;;;2.69;100.00;90210.31;4994517;28;20023;-70
2021/12/29 00:36:07;;;;;;;17.65;11.40;;;;;;;2.64;100.00;90199.06;4994391;28;20405;-69
2021/12/29 00:38:32;;;;;;;19.48;10.65;;;;;;;2.69;100.00;90188.50;4994381;28;20030;-70
2021/12/29 00:40:58;;;;;;;13.23;8.50;;;;;;;2.78;100.00;90191.28;4994406;28;20039;-69
2021/12/29 00:43:24;;;;;;;17.27;8.90;;;;;;;2.91;100.00;90188.78;4994379;28;20030;-69
2021/12/29 00:45:50;;;;;;;19.23;10.48;;;;;;;3.01;100.00;90193.16;4994196;28;20256;-69
2021/12/29 00:48:17;;;;;;;30.80;15.77;;;;;;;3.13;100.00;90185.63;4994216;28;20030;-69
2021/12/29 00:50:43;;;;;;;18.77;10.85;;;;;;;3.29;100.00;90186.22;4994242;28;20417;-69
2021/12/29 00:53:09;;;;;;;24.10;12.18;;;;;;;3.34;100.00;90188.00;4994197;28;20030;-69
2021/12/29 00:55:35;;;;;;;37.40;17.23;;;;;;;3.49;100.00;90193.06;4993997;28;20489;-69
2021/12/29 00:58:02;;;;;;;36.17;18.05;;;;;;;3.45;100.00;90192.06;4994056;28;20037;-70
2021/12/29 01:00:28;;;;;;;18.92;10.98;;;;;;;3.50;100.00;90177.00;4994057;28;20041;-70
2021/12/29 01:02:53;;;;;;;16.92;9.23;;;;;;;3.41;100.00;90180.53;4994009;28;20026;-69
2021/12/29 01:05:20;;;;;;;14.90;9.35;;;;;;;3.35;100.00;90173.81;4993866;28;20105;-70
2021/12/29 01:07:49;;;;;;;16.58;9.48;;;;;;;3.37;100.00;90179.56;4993926;28;20033;-69
2021/12/29 01:10:15;;;;;;;13.85;8.50;;;;;;;3.29;100.00;90178.31;4993761;28;20046;-69
2021/12/29 01:12:47;;;;;;;10.65;7.10;;;;;;;3.38;100.00;90183.75;4993829;28;20061;-69
2021/12/29 01:15:16;;;;;;;10.02;6.43;;;;;;;3.48;100.00;90184.41;4993731;28;20041;-70
2021/12/29 01:17:42;;;;;;;40.40;18.55;;;;;;;3.51;100.00;90183.81;4993754;28;20018;-69
2021/12/29 01:20:08;;;;;;;15.18;7.60;;;;;;;3.63;100.00;90178.16;4993557;28;20130;-69
2021/12/29 01:22:33;;;;;;;23.67;11.82;;;;;;;3.40;100.00;90178.97;4993442;28;20050;-69
2021/12/29 01:24:59;;;;;;;13.73;7.90;;;;;;;3.46;100.00;90178.63;4993516;28;20096;-69
2021/12/29 01:27:24;;;;;;;15.32;8.38;;;;;;;3.49;100.00;90169.41;4993473;28;20073;-69
2021/12/29 01:29:50;;;;;;;17.98;10.35;;;;;;;3.30;100.00;90180.66;4993493;28;20026;-69
2021/12/29 01:32:15;;;;;;;17.52;9.88;;;;;;;3.09;100.00;90168.09;4993405;28;20030;-69
2021/12/29 01:34:41;;;;;;;14.30;9.57;;;;;;;3.06;100.00;90160.75;4993443;28;20033;-69
2021/12/29 01:37:07;;;;;;;14.18;7.97;;;;;;;3.13;100.00;90148.84;4993266;28;20035;-69
2021/12/29 01:39:32;;;;;;;8.73;6.05;;;;;;;2.99;100.00;90154.00;4992447;28;20034;-69
2021/12/29 01:41:59;;;;;;;8.20;5.18;;;;;;;3.02;100.00;90147.41;4992995;28;20494;-69
2021/12/29 01:44:26;;;;;;;8.80;5.30;;;;;;;3.05;100.00;90141.59;4993167;28;20053;-69
2021/12/29 01:46:55;;;;;;;7.45;4.72;;;;;;;3.08;100.00;90156.78;4993143;28;20389;-69
2021/12/29 01:49:21;;;;;;;9.63;5.47;;;;;;;3.10;100.00;90149.41;4993209;28;20169;-69
2021/12/29 01:51:50;;;;;;;13.30;7.45;;;;;;;2.90;100.00;90150.44;4993179;28;20505;-69
2021/12/29 01:54:23;;;;;;;11.90;7.72;;;;;;;3.13;100.00;90151.47;4993295;28;20085;-69
2021/12/29 01:56:52;;;;;;;9.90;6.55;;;;;;;3.13;100.00;90148.84;4992913;28;20045;-69
2021/12/29 01:59:17;;;;;;;10.85;6.75;;;;;;;3.07;100.00;90149.97;4992985;28;20030;-69
2021/12/29 02:01:44;;;;;;;11.75;6.30;;;;;;;3.14;100.00;90139.88;4992938;28;20034;-69
2021/12/29 02:04:09;;;;;;;12.32;6.25;;;;;;;3.15;100.00;90135.41;4992828;28;20032;-69
2021/12/29 02:06:35;;;;;;;7.65;5.03;;;;;;;3.11;100.00;90129.94;4992712;28;20034;-69
2021/12/29 02:09:01;;;;;;;5.80;4.18;;;;;;;3.08;100.00;90125.25;4992806;28;20508;-69
2021/12/29 02:11:30;;;;;;;5.78;4.38;;;;;;;3.02;100.00;90126.41;4992711;28;20026;-69
2021/12/29 02:14:02;;;;;;;5.00;3.83;;;;;;;2.86;100.00;90122.41;4992925;28;20049;-69
2021/12/29 02:16:28;;;;;;;5.88;4.15;;;;;;;2.78;100.00;90115.91;4992504;28;20030;-69
2021/12/29 02:18:57;;;;;;;5.90;4.22;;;;;;;2.81;100.00;90114.56;4992531;28;20118;-69
2021/12/29 02:21:25;;;;;;;6.78;4.43;;;;;;;2.81;100.00;90114.56;4992373;28;20046;-69
2021/12/29 02:26:32;;;;;;;7.00;4.30;;;;;;;2.97;100.00;90121.97;4992692;28;20034;-69
2021/12/29 02:29:00;;;;;;;9.32;5.82;;;;;;;3.08;100.00;90109.50;4992415;28;20480;-69
2021/12/29 02:31:27;;;;;;;9.00;6.55;;;;;;;3.16;100.00;90116.75;4992398;28;20081;-69
2021/12/29 02:33:53;;;;;;;8.38;6.72;;;;;;;3.16;100.00;90110.72;4992295;28;20050;-69
2021/12/29 02:36:20;;;;;;;9.10;6.15;;;;;;;2.95;100.00;90104.94;4992180;28;20117;-70
2021/12/29 02:38:50;;;;;;;8.50;5.88;;;;;;;2.80;100.00;90098.03;4992285;28;20022;-69
2021/12/29 02:41:16;;;;;;;9.05;5.88;;;;;;;2.76;100.00;90098.88;4992275;28;20032;-69
2021/12/29 02:43:43;;;;;;;9.75;6.00;;;;;;;2.81;100.00;90096.19;4992441;28;20105;-69
2021/12/29 02:46:12;;;;;;;8.80;6.13;;;;;;;2.85;100.00;90094.56;4991888;28;20080;-69
2021/12/29 02:48:48;;;;;;;10.30;5.93;;;;;;;2.77;100.00;90093.34;4992109;28;20030;-70
2021/12/29 02:51:14;;;;;;;9.73;5.90;;;;;;;2.74;100.00;90095.75;4991687;28;20101;-69
2021/12/29 02:53:40;;;;;;;8.82;5.28;;;;;;;2.76;100.00;90093.63;4992050;28;20037;-69
2021/12/29 02:56:05;;;;;;;7.78;4.53;;;;;;;2.71;100.00;90089.22;4991890;28;20034;-70
2021/12/29 02:58:32;;;;;;;8.48;4.80;;;;;;;2.58;100.00;90080.19;4991983;28;20033;-70
2021/12/29 03:00:59;;;;;;;5.60;4.40;;;;;;;2.40;100.00;90067.81;4991871;28;20035;-69
2021/12/29 03:03:27;;;;;;;8.13;4.85;;;;;;;2.45;100.00;90074.84;4991890;28;20035;-69
2021/12/29 03:05:54;;;;;;;7.22;3.97;;;;;;;2.53;100.00;90075.00;4991809;28;20026;-69
2021/12/29 03:08:21;;;;;;;5.93;4.20;;;;;;;2.49;100.00;90066.09;4991858;28;20037;-69
2021/12/29 03:10:52;;;;;;;6.03;4.32;;;;;;;2.57;100.00;90068.13;4991944;28;20041;-69
2021/12/29 03:13:20;;;;;;;7.47;4.22;;;;;;;2.60;100.00;90064.16;4991859;28;20022;-69
2021/12/29 03:15:45;;;;;;;6.50;4.40;;;;;;;2.67;100.00;90067.97;4991789;28;20081;-70
2021/12/29 03:18:11;;;;;;;7.85;4.75;;;;;;;2.76;100.00;90070.78;4991759;28;20026;-69
2021/12/29 03:20:36;;;;;;;19.55;9.93;;;;;;;2.77;100.00;90066.31;4991554;28;20054;-70
2021/12/29 03:23:02;;;;;;;9.70;6.00;;;;;;;2.83;100.00;90075.66;4991724;28;20033;-69
2021/12/29 03:25:28;;;;;;;7.97;5.88;;;;;;;2.79;100.00;90074.69;4991606;28;20050;-70
2021/12/29 03:27:58;;;;;;;8.93;5.95;;;;;;;2.78;100.00;90076.53;4991752;28;20507;-70
2021/12/29 03:30:37;;;;;;;7.57;5.75;;;;;;;2.72;100.00;90061.13;4991676;28;20049;-70
2021/12/29 03:33:05;;;;;;;8.05;5.22;;;;;;;2.70;100.00;90070.06;4991663;28;20478;-69
2021/12/29 03:35:35;;;;;;;7.97;4.80;;;;;;;2.65;100.00;90059.59;4991475;28;20034;-70
2021/12/29 03:38:05;;;;;;;6.80;4.32;;;;;;;2.46;100.00;90047.53;4991631;28;20026;-69
2021/12/29 03:40:31;;;;;;;8.23;5.25;;;;;;;2.40;100.00;90046.81;4991550;28;20041;-69
2021/12/29 03:42:57;;;;;;;9.90;7.43;;;;;;;2.35;100.00;90047.63;4991587;28;20031;-69
2021/12/29 03:45:23;;;;;;;11.77;8.43;;;;;;;2.39;100.00;90048.66;4991413;28;20038;-70
2021/12/29 03:47:49;;;;;;;12.50;8.15;;;;;;;2.39;100.00;90045.25;4991524;28;20030;-70
2021/12/29 03:50:15;;;;;;;13.20;8.55;;;;;;;2.45;100.00;90041.50;4990208;28;20397;-69
2021/12/29 03:52:40;;;;;;;17.15;10.35;;;;;;;2.41;100.00;90037.88;4991479;28;20030;-69
2021/12/29 03:55:07;;;;;;;18.00;10.85;;;;;;;2.47;100.00;90047.22;4991409;28;20034;-69
2021/12/29 03:57:33;;;;;;;18.67;11.93;;;;;;;2.43;100.00;90043.63;4991412;28;20060;-70
2021/12/29 03:59:59;;;;;;;18.55;10.77;;;;;;;2.38;100.00;90027.94;4991399;28;20026;-69
2021/12/29 04:02:24;;;;;;;25.13;13.35;;;;;;;2.32;100.00;90024.56;4991313;28;20049;-69
2021/12/29 04:04:50;;;;;;;21.17;12.68;;;;;;;2.29;100.00;90025.16;4994501;28;20030;-69
2021/12/29 04:07:15;;;;;;;16.25;8.65;;;;;;;2.28;100.00;90022.81;4994959;28;20060;-69
2021/12/29 04:09:41;;;;;;;13.38;8.07;;;;;;;2.28;100.00;90022.81;4995028;28;20065;-70
2021/12/29 04:12:07;;;;;;;13.43;8.65;;;;;;;2.29;100.00;90013.88;4995022;28;20030;-69
2021/12/29 04:14:33;;;;;;;13.30;8.30;;;;;;;2.34;100.00;90027.69;4994906;28;20035;-69
2021/12/29 04:17:07;;;;;;;12.60;7.78;;;;;;;2.29;100.00;90024.38;4994783;28;20456;-70
2021/12/29 04:20:54;;;;;;;10.32;7.10;;;;;;;2.30;100.00;90018.84;4995133;28;20133;-69
2021/12/29 04:22:25;;;;;;;13.30;7.47;;;;;;;2.21;100.00;90017.91;4994536;28;20547;-70
2021/12/29 04:24:50;;;;;;;21.23;8.43;;;;;;;2.10;100.00;90012.00;4994680;28;20065;-69
2021/12/29 04:27:16;;;;;;;14.77;8.93;;;;;;;2.02;100.00;90017.84;4994612;28;20037;-69
2021/12/29 04:29:42;;;;;;;14.82;8.48;;;;;;;1.96;100.00;90013.72;4994676;28;20022;-69
2021/12/29 04:32:07;;;;;;;12.32;7.97;;;;;;;1.88;100.00;90003.03;4994640;28;20057;-69
2021/12/29 04:34:33;;;;;;;12.82;8.30;;;;;;;1.69;100.00;90006.38;4994521;28;20060;-70
2021/12/29 04:36:59;;;;;;;12.98;8.10;;;;;;;1.53;100.00;90002.34;4994354;28;20034;-69
2021/12/29 04:39:25;;;;;;;17.98;11.57;;;;;;;1.41;100.00;90002.72;4994559;28;20113;-69
2021/12/29 04:41:50;;;;;;;17.15;10.43;;;;;;;1.43;100.00;90007.72;4994416;28;20450;-69
2021/12/29 04:44:16;;;;;;;14.77;10.48;;;;;;;1.41;100.00;89997.47;4994277;28;20033;-69
2021/12/29 04:46:45;;;;;;;20.80;11.88;;;;;;;1.29;100.00;90007.56;4994256;28;20022;-69
2021/12/29 04:49:14;;;;;;;39.63;25.05;;;;;;;1.16;100.00;90008.19;4994283;28;20077;-69
2021/12/29 04:51:51;;;;;;;14.98;11.13;;;;;;;1.08;100.00;90021.84;4994181;28;20096;-69
2021/12/29 04:54:17;;;;;;;17.55;11.70;;;;;;;1.04;100.00;90023.47;4993763;28;20096;-69
2021/12/29 04:56:44;;;;;;;26.38;17.88;;;;;;;1.07;100.00;90009.81;4993284;28;20504;-69
2021/12/29 04:59:09;;;;;;;21.20;13.85;;;;;;;1.08;100.00;90012.16;4984172;28;20026;-69
2021/12/29 05:01:35;;;;;;;21.67;13.27;;;;;;;1.14;100.00;90020.78;4993392;28;20072;-69
2021/12/29 05:04:01;;;;;;;18.48;12.23;;;;;;;1.13;100.00;90029.69;4984313;28;20425;-69
2021/12/29 05:09:11;;;;;;;27.35;18.48;;;;;;;1.59;100.00;90024.06;4991986;28;20597;-69
2021/12/29 05:11:36;;;;;;;22.88;14.30;;;;;;;1.79;100.00;90021.25;4993921;28;20109;-69
2021/12/29 05:14:02;;;;;;;53.35;28.33;;;;;;;1.85;100.00;90024.59;4993007;28;20495;-69
2021/12/29 05:16:28;;;;;;;80.63;43.30;;;;;;;1.89;100.00;90029.00;4993639;28;20109;-69
2021/12/29 05:18:56;;;;;;;65.43;41.20;;;;;;;2.03;100.00;90019.41;4993760;28;20033;-68
2021/12/29 05:21:23;;;;;;;42.50;27.65;;;;;;;2.22;100.00;90023.94;4993406;28;20065;-70
2021/12/29 05:23:48;;;;;;;30.45;20.42;;;;;;;2.38;100.00;90028.72;4993583;28;20026;-69
2021/12/29 05:26:14;;;;;;;31.25;16.80;;;;;;;2.55;100.00;90028.25;4993310;28;20037;-70
2021/12/29 05:28:39;;;;;;;24.83;16.88;;;;;;;2.51;100.00;90027.22;4993437;28;20030;-69
2021/12/29 05:31:05;;;;;;;29.08;17.60;;;;;;;2.50;100.00;90025.66;4992095;28;20034;-71
2021/12/29 05:33:30;;;;;;;33.88;24.00;;;;;;;2.60;100.00;90030.03;4993474;28;20030;-70
2021/12/29 05:35:56;;;;;;;23.92;15.93;;;;;;;2.70;100.00;90028.06;4993270;28;20034;-70
2021/12/29 05:38:21;;;;;;;19.17;14.23;;;;;;;2.63;100.00;90021.56;4992932;28;20519;-69
2021/12/29 05:40:52;;;;;;;24.75;17.40;;;;;;;2.72;100.00;90033.03;4993320;28;20034;-69
2021/12/29 05:43:18;;;;;;;20.90;14.40;;;;;;;2.56;100.00;90016.69;4993315;28;20489;-69
2021/12/29 05:45:43;;;;;;;22.38;13.32;;;;;;;2.39;100.00;90029.50;4981777;28;20044;-69
2021/12/29 05:48:09;;;;;;;22.67;12.82;;;;;;;2.25;100.00;90021.53;4992951;28;20030;-68
2021/12/29 05:50:34;;;;;;;19.48;11.68;;;;;;;2.28;100.00;90028.06;4992867;28;20048;-70
2021/12/29 05:53:01;;;;;;;20.05;11.98;;;;;;;2.37;100.00;90042.91;4992975;28;20042;-68
2021/12/29 05:55:28;;;;;;;35.15;22.48;;;;;;;2.40;100.00;90037.09;4992671;28;20158;-68
2021/12/29 05:57:53;;;;;;;25.35;15.13;;;;;;;2.30;100.00;90041.66;4992356;28;20029;-70
2021/12/29 06:00:21;;;;;;;27.40;16.55;;;;;;;2.37;100.00;90048.16;4992719;28;20471;-68
2021/12/29 06:02:47;;;;;;;34.97;18.20;;;;;;;2.45;100.00;90041.50;4992746;28;20390;-69
2021/12/29 06:05:14;;;;;;;38.38;20.27;;;;;;;2.55;100.00;90054.50;4992608;28;20109;-69
2021/12/29 06:07:40;;;;;;;40.45;21.42;;;;;;;2.56;100.00;90050.03;4992740;28;20184;-69
2021/12/29 06:10:07;;;;;;;41.33;20.40;;;;;;;2.59;100.00;90058.13;4992786;28;20030;-68
2021/12/29 06:12:33;;;;;;;37.13;19.77;;;;;;;2.68;100.00;90056.44;4992721;28;20109;-69
2021/12/29 06:14:58;;;;;;;41.30;21.20;;;;;;;2.67;100.00;90061.94;4992641;28;20054;-69
2021/12/29 06:17:24;;;;;;;48.08;26.77;;;;;;;2.67;100.00;90067.19;4992485;28;20052;-68
2021/12/29 06:19:49;;;;;;;49.40;27.38;;;;;;;2.84;100.00;90061.47;4992575;28;20034;-69
2021/12/29 06:22:15;;;;;;;56.63;30.45;;;;;;;2.77;100.00;90058.41;4992191;28;20084;-70
2021/12/29 06:24:42;;;;;;;71.22;38.53;;;;;;;2.85;100.00;90068.31;4992244;28;20030;-69
2021/12/29 06:27:08;;;;;;;45.30;23.58;;;;;;;2.73;100.00;90060.06;4992004;28;20030;-69
2021/12/29 06:29:35;;;;;;;40.47;20.40;;;;;;;2.83;100.00;90078.28;4992382;28;20033;-69
2021/12/29 06:32:01;;;;;;;38.25;20.50;;;;;;;2.81;100.00;90075.94;4992615;28;20105;-69
2021/12/29 06:34:27;;;;;;;27.85;15.25;;;;;;;2.84;100.00;90077.22;4992404;28;20029;-69
2021/12/29 06:36:53;;;;;;;26.77;14.88;;;;;;;2.78;100.00;90079.16;4992199;28;20033;-68
2021/12/29 06:39:19;;;;;;;28.92;17.00;;;;;;;2.72;100.00;90069.78;4992156;28;20034;-69
2021/12/29 06:41:45;;;;;;;40.50;24.10;;;;;;;2.76;100.00;90080.50;4992314;28;20038;-68
2021/12/29 06:44:11;;;;;;;50.35;30.63;;;;;;;2.78;100.00;90065.25;4992140;28;20493;-68
2021/12/29 06:46:37;;;;;;;63.60;37.20;;;;;;;2.78;100.00;90068.63;4992040;28;20066;-68
2021/12/29 06:49:03;;;;;;;72.78;41.42;;;;;;;2.91;100.00;90081.09;5007091;28;20037;-69
2021/12/29 06:51:29;;;;;;;60.08;33.95;;;;;;;3.09;100.00;90079.53;4991921;28;20035;-69
2021/12/29 06:53:54;;;;;;;64.85;37.60;;;;;;;3.24;100.00;90087.19;4990587;28;20041;-69
2021/12/29 06:56:21;;;;;;;78.57;45.58;;;;;;;3.32;100.00;90071.88;4991868;28;20038;-69
2021/12/29 06:58:47;;;;;;;76.00;44.85;;;;;;;3.38;100.00;90075.97;5006932;28;20453;-69
2021/12/29 07:01:13;;;;;;;73.28;43.50;;;;;;;3.56;100.00;90083.03;4991865;28;20128;-69
2021/12/29 07:03:39;;;;;;;85.55;46.90;;;;;;;3.64;100.00;90079.78;4991909;28;20148;-68
2021/12/29 07:06:05;;;;;;;81.75;44.45;;;;;;;3.67;100.00;90081.81;4991303;28;20057;-68
2021/12/29 07:08:31;;;;;;;71.28;38.05;;;;;;;3.61;100.00;90085.59;4991713;28;20548;-70
2021/12/29 07:10:56;;;;;;;40.70;21.45;;;;;;;3.30;100.00;90078.16;4991547;28;20105;-69
2021/12/29 07:13:22;;;;;;;26.88;16.33;;;;;;;3.26;100.00;90073.78;4991684;28;20114;-69
2021/12/29 07:15:48;;;;;;;20.00;12.40;;;;;;;3.45;100.00;90076.38;4991660;28;20026;-69
2021/12/29 07:18:14;;;;;;;23.05;14.32;;;;;;;3.61;100.00;90080.31;4991777;28;20026;-69
2021/12/29 07:20:40;;;;;;;66.47;38.53;;;;;;;3.49;100.00;90077.38;4991523;28;20096;-71
2021/12/29 07:23:06;;;;;;;43.50;26.50;;;;;;;3.44;100.00;90082.69;4991681;28;20027;-70
2021/12/29 07:25:31;;;;;;;30.42;17.85;;;;;;;3.49;100.00;90085.28;4991456;28;20097;-71
2021/12/29 07:27:57;;;;;;;28.10;17.15;;;;;;;3.63;100.00;90088.75;4991718;28;20058;-70
2021/12/29 07:30:23;;;;;;;34.63;20.42;;;;;;;3.71;100.00;90089.91;4991709;28;20019;-70
2021/12/29 07:32:48;;;;;;;39.10;22.45;;;;;;;3.80;100.00;90090.84;4991625;28;20058;-70
2021/12/29 07:35:14;;;;;;;47.83;26.40;;;;;;;3.63;100.00;90077.41;4991574;28;20097;-70
2021/12/29 07:37:40;;;;;;;32.58;18.83;;;;;;;3.67;100.00;90091.56;4993157;28;20073;-69
2021/12/29 07:40:08;;;;;;;17.67;11.65;;;;;;;3.77;100.00;90088.75;4995646;28;20092;-69
2021/12/29 07:42:36;;;;;;;17.50;10.43;;;;;;;3.89;100.00;90089.09;4995509;28;20093;-70
2021/12/29 07:45:06;;;;;;;15.73;9.05;;;;;;;3.94;100.00;90088.22;4995326;28;20092;-70
2021/12/29 07:47:31;;;;;;;21.40;11.68;;;;;;;3.88;100.00;90085.69;4995483;28;20408;-70
2021/12/29 07:49:57;;;;;;;23.33;14.98;;;;;;;3.87;100.00;90085.97;4995512;28;20022;-70
2021/12/29 07:52:22;;;;;;;25.98;14.55;;;;;;;3.95;100.00;90085.31;4995338;28;20480;-71
2021/12/29 07:54:48;;;;;;;34.60;21.83;;;;;;;4.03;100.00;90081.22;4995179;28;20034;-70
2021/12/29 07:57:13;;;;;;;20.08;12.90;;;;;;;3.88;100.00;90074.38;4995278;28;20026;-70
2021/12/29 07:59:39;;;;;;;17.90;12.23;;;;;;;3.70;100.00;90078.63;4995225;28;20114;-69
2021/12/29 08:02:05;;;;;;;16.98;10.32;;;;;;;3.74;100.00;90081.44;4995077;28;20559;-70
2021/12/29 08:04:30;;;;;;;35.90;22.38;;;;;;;3.80;100.00;90073.19;4995000;28;20037;-70
2021/12/29 08:06:56;;;;;;;32.08;19.00;;;;;;;3.85;100.00;90083.63;4994994;28;20486;-70
2021/12/29 08:09:22;;;;;;;37.22;23.42;;;;;;;3.88;100.00;90074.38;4993818;28;20022;-69
2021/12/29 08:11:47;;;;;;;53.78;33.92;;;;;;;3.62;100.00;90076.63;4995030;28;20030;-70
2021/12/29 08:14:13;;;;;;;81.68;48.92;;;;;;;3.52;100.00;90071.53;4994943;28;20031;-70
2021/12/29 08:16:38;;;;;;;126.90;67.75;;;;;;;3.62;100.00;90076.63;4994897;28;20504;-70
2021/12/29 08:19:05;;;;;;;177.43;96.47;;;;;;;3.73;100.00;90083.31;4994867;28;20034;-70
2021/12/29 08:21:30;;;;;;;128.02;70.45;;;;;;;3.80;100.00;90090.84;4994783;28;20125;-69
2021/12/29 08:23:56;;;;;;;98.05;58.33;;;;;;;3.83;100.00;90088.41;4994710;28;20612;-70
2021/12/29 08:26:22;;;;;;;76.00;44.03;;;;;;;3.87;100.00;90083.34;4994780;28;20030;-70
2021/12/29 08:28:49;;;;;;;57.90;32.92;;;;;;;4.00;100.00;90081.81;4994816;28;20025;-70
2021/12/29 08:31:15;;;;;;;30.73;19.15;;;;;;;3.98;100.00;90081.34;4994919;28;20117;-69
2021/12/29 08:33:40;;;;;;;28.33;18.10;;;;;;;3.76;100.00;90081.94;4994544;28;20589;-70
2021/12/29 08:36:07;;;;;;;35.47;20.98;;;;;;;3.80;100.00;90077.69;4993283;28;20461;-69
2021/12/29 08:38:34;;;;;;;33.08;20.05;;;;;;;3.84;100.00;90081.28;4993286;28;20409;-70
2021/12/29 08:41:00;;;;;;;30.33;18.02;;;;;;;3.69;100.00;90082.31;4993113;28;20038;-69
2021/12/29 08:43:25;;;;;;;27.73;16.15;;;;;;;3.64;100.00;90079.00;4994430;28;20551;-70
2021/12/29 08:45:51;;;;;;;24.77;15.38;;;;;;;3.67;100.00;90073.94;4994223;28;20069;-69
2021/12/29 08:48:17;;;;;;;21.55;12.40;;;;;;;3.49;100.00;90074.75;4994335;28;20416;-69
2021/12/29 08:50:43;;;;;;;29.65;16.88;;;;;;;3.37;100.00;90063.91;4993546;28;20491;-69
2021/12/29 08:53:10;;;;;;;39.88;23.05;;;;;;;3.38;100.00;90073.34;4994382;28;20497;-70
2021/12/29 08:55:37;;;;;;;36.03;17.50;;;;;;;3.43;100.00;90073.25;4994020;28;20030;-70
2021/12/29 08:58:06;;;;;;;33.47;20.33;;;;;;;3.10;100.00;90015.41;4994180;28;20034;-69
2021/12/29 09:00:33;;;;;;;23.75;14.20;;;;;;;3.67;100.00;90073.94;4994182;28;20490;-70
2021/12/29 09:02:58;;;;;;;31.35;17.98;;;;;;;3.70;100.00;90073.34;4994065;28;20030;-70
2021/12/29 09:05:24;;;;;;;29.23;17.98;;;;;;;3.70;100.00;90068.09;4993847;28;20034;-68
2021/12/29 09:07:50;;;;;;;26.77;17.42;;;;;;;3.87;100.00;90070.19;4993967;28;20037;-68
2021/12/29 09:10:18;;;;;;;27.17;17.33;;;;;;;3.89;100.00;90068.81;4993812;28;20034;-69
2021/12/29 09:12:48;;;;;;;24.25;14.85;;;;;;;3.90;100.00;90059.84;4993934;28;20037;-69
2021/12/29 09:15:14;;;;;;;21.52;13.35;;;;;;;3.93;100.00;90061.13;4993677;28;20122;-69
2021/12/29 09:17:39;;;;;;;23.77;14.88;;;;;;;3.89;100.00;90050.41;4993830;28;20096;-68
2021/12/29 09:20:13;;;;;;;27.02;16.80;;;;;;;3.92;100.00;90051.69;4993804;28;20022;-68
2021/12/29 09:22:39;;;;;;;35.25;22.13;;;;;;;3.84;100.00;90047.88;4993527;28;20043;-68
2021/12/29 09:25:05;;;;;;;63.22;36.67;;;;;;;3.81;100.00;90048.47;4993371;28;20085;-68
2021/12/29 09:27:30;;;;;;;61.92;36.40;;;;;;;3.84;100.00;90045.25;4993572;28;20034;-68
2021/12/29 09:29:56;;;;;;;57.90;34.38;;;;;;;3.98;100.00;90037.38;4993519;28;20459;-69
2021/12/29 09:32:22;;;;;;;48.80;29.58;;;;;;;4.14;100.00;90041.28;4992256;28;20035;-69
2021/12/29 09:34:48;;;;;;;59.33;33.38;;;;;;;4.27;100.00;90039.75;4993347;28;20034;-69
2021/12/29 09:37:13;;;;;;;54.33;33.30;;;;;;;4.38;100.00;90035.84;4993316;28;20031;-68
2021/12/29 09:39:39;;;;;;;130.70;65.35;;;;;;;4.61;100.00;90038.56;4993432;28;20448;-68
2021/12/29 09:42:05;;;;;;;76.57;44.50;;;;;;;4.69;100.00;90029.97;4993323;28;20038;-68
2021/12/29 09:44:31;;;;;;;71.40;41.60;;;;;;;4.72;100.00;90038.06;4993138;28;20538;-68
2021/12/29 09:46:57;;;;;;;67.15;41.88;;;;;;;4.71;100.00;90030.44;4993250;28;20030;-69
2021/12/29 09:49:23;;;;;;;74.25;45.42;;;;;;;4.55;100.00;90042.38;4993224;28;20034;-68
2021/12/29 09:51:50;;;;;;;69.72;43.58;;;;;;;4.43;100.00;90043.66;4993233;28;20393;-69
2021/12/29 09:54:16;;;;;;;63.65;41.30;;;;;;;4.35;100.00;90040.91;4993073;28;20030;-68
2021/12/29 09:56:41;;;;;;;68.63;41.05;;;;;;;4.30;100.00;90031.25;4988939;28;20037;-68
2021/12/29 09:59:07;;;;;;;65.63;41.47;;;;;;;4.40;100.00;90038.16;4992772;28;20105;-70
2021/12/29 10:01:33;;;;;;;76.75;49.45;;;;;;;4.49;100.00;90033.78;4991741;28;20121;-68
2021/12/29 10:03:59;;;;;;;161.52;100.35;;;;;;;4.60;100.00;90029.91;4992810;28;20035;-68
2021/12/29 10:06:25;;;;;;;104.68;67.45;;;;;;;4.76;100.00;90030.38;4990891;28;20041;-68
2021/12/29 10:08:52;;;;;;;74.22;49.85;;;;;;;4.98;100.00;90034.91;4992716;28;20463;-68
2021/12/29 10:11:26;;;;;;;65.88;44.70;;;;;;;5.08;100.00;90032.84;4992407;28;20035;-69
2021/12/29 10:13:52;;;;;;;52.67;34.95;;;;;;;5.33;100.00;90028.84;4992722;28;20038;-69
2021/12/29 10:16:26;;;;;;;35.90;23.80;;;;;;;5.52;100.00;90018.09;4992471;28;20034;-68
2021/12/29 10:19:04;;;;;;;44.55;27.25;;;;;;;5.50;100.00;90015.00;4992734;28;20032;-68
2021/12/29 10:21:30;;;;;;;33.28;22.15;;;;;;;5.58;100.00;90011.66;4991899;28;20505;-68
2021/12/29 10:23:57;;;;;;;30.95;19.35;;;;;;;5.37;100.00;90013.22;4992292;28;20029;-68
2021/12/29 10:26:28;;;;;;;61.70;35.55;;;;;;;5.42;100.00;90010.47;4992093;28;20034;-68
2021/12/29 10:29:02;;;;;;;66.10;36.70;;;;;;;5.63;100.00;89994.91;4992585;28;20413;-68
2021/12/29 10:31:37;;;;;;;80.68;40.90;;;;;;;5.43;100.00;89998.03;4992142;28;20057;-67
2021/12/29 10:34:06;;;;;;;60.75;34.90;;;;;;;5.67;100.00;89993.22;4992207;28;20061;-70
2021/12/29 10:36:36;;;;;;;41.80;26.30;;;;;;;6.06;100.00;90000.47;4991606;28;20109;-65
2021/12/29 10:39:01;;;;;;;40.97;28.33;;;;;;;6.03;100.00;89995.81;4992112;28;20057;-66
2021/12/29 10:41:27;;;;;;;47.80;32.20;;;;;;;5.90;100.00;89997.44;4992235;28;20563;-66
2021/12/29 10:43:58;;;;;;;49.95;32.95;;;;;;;5.86;100.00;89987.75;4991945;28;20034;-66
2021/12/29 10:46:26;;;;;;;51.80;35.70;;;;;;;5.65;100.00;89982.19;4991798;28;20109;-66
2021/12/29 10:48:53;;;;;;;436.95;279.50;;;;;;;5.88;100.00;89990.88;4992182;28;20031;-66
2021/12/29 10:51:24;;;;;;;70.43;44.25;;;;;;;5.90;100.00;89984.25;4991766;28;20034;-66
2021/12/29 10:53:50;;;;;;;72.45;46.90;;;;;;;5.87;100.00;89981.41;4991794;28;20084;-66
2021/12/29 10:56:24;;;;;;;80.50;50.45;;;;;;;6.06;100.00;89976.72;4991863;28;20102;-66
2021/12/29 10:58:53;;;;;;;93.40;57.72;;;;;;;6.05;100.00;89964.59;4991908;28;20128;-66
2021/12/29 11:01:19;;;;;;;94.68;58.55;;;;;;;5.85;100.00;89971.16;4991636;28;21012;-66
2021/12/29 11:03:58;;;;;;;92.30;54.95;;;;;;;5.69;100.00;89967.34;4991680;28;20042;-65
2021/12/29 11:06:26;;;;;;;84.28;51.13;;;;;;;5.78;100.00;89962.88;4991178;28;20030;-65
2021/12/29 11:08:55;;;;;;;77.60;46.47;;;;;;;5.69;100.00;89957.56;4991710;28;20058;-65
2021/12/29 11:11:39;;;;;;;73.47;45.30;;;;;;;6.13;100.00;89961.19;4991736;28;20034;-65
2021/12/29 11:14:16;;;;;;;;;;;;;;;6.89;100.00;89955.63;4992009;28;20034;-65
2021/12/29 11:16:44;;;;;;;68.47;43.17;;;;;;;6.98;100.00;89953.78;4991519;28;19920;-65
2021/12/29 11:19:10;;;;;;;68.25;43.75;;;;;;;7.30;100.00;89939.31;4991635;28;20493;-65
2021/12/29 11:21:42;;;;;;;67.63;44.38;;;;;;;7.46;100.00;89937.75;4991071;28;20057;-66
2021/12/29 11:24:25;;;;;;;65.75;39.42;;;;;;;7.78;100.00;89938.31;4991399;28;20030;-65
2021/12/29 11:26:52;;;;;;;61.10;39.08;;;;;;;8.04;100.00;89941.66;4991545;28;20319;-68